Soaring Guidance
Issued by NWS Reno, NV

Home | Current Version | Previous Version | Text Only | Print | Product List | Glossary On
Versions: 1 2 3 4 5 6 7
000
UXUS97 KREV 221340
SRGREV

SOARING FORECAST
NATIONAL WEATHER SERVICE - RENO NV
700 AM PDT SAT APR 22 2017

THIS SOARING FORECAST IS FOR THE EASTERN SIERRA AND WESTERN NEVADA
WITH SPECIFIC INDICES FOR THE GREATER RENO AREA.

THIS FORECAST IS PREPARED DAILY BY 700 AM AND IS NOT UPDATED.

FOR CURRENT FLIGHT CONDITIONS...FORECASTS...AND ADVISORIES...ACCESS
YOUR LOCAL BRIEFING OUTLET OR FLIGHT SERVICE STATION.

*******************************************************************
FORECASTED LOCAL INDICES FOR RENO:        TODAY     YESTERDAY
FORECASTED MAX TEMP AT RENO (DEG F).....     74          68
FORECASTED TRIGGER TEMPERATURE (DEG F)..     68          50
   EXCEEDED YESTERDAY BY 1000 AM PDT
FORECASTED MAXIMUM ALTITUDE (FT MSL)....  11600       11600
FORECASTED SOARING INDEX (FPM)..........    528         378
FORECASTED K-INDEX.........VALID 18Z....      9           5
FORECASTED K-INDEX.........VALID 00Z....     20          17
FORECASTED LIFTED INDEX....VALID 18Z....      9           9
FORECASTED LIFTED INDEX....VALID 00Z....      4           7

AFTERNOON WINDS ALOFT FORECAST
MSL (FT) WIND/TEMP
9000  2325/+05
10000 2229/+03
12000 2236/-01
14000 2237/-05
16000 2238/-09
18000 2242/-14
24000 2358/-24
30000 2460/-42
34000 2469/-52
39000 2378/-64

SLIDE MOUNTAIN DATA:

*WIND DIRECTION BROKEN: MOST LIKELY SSW.*

     DATE       TIME     TEMP  DEWPT   RH         WIND (MPH)
                        (F)   (F)           | DIR  SPEED GUST
2017-04-22    05:20      36    20     40    |  M*   45   53
2017-04-22    05:00      36    20     38    |  M*   47   55
2017-04-22    04:50      36    21     40    |  M*   44   53
2017-04-22    04:30      37    22     44    |  M*   45   52

RENO TAF FORECAST:
KRNO 221120Z 2212/2312 VRB04KT P6SM SCT250
     FM222000 24015G25KT P6SM SCT150 BKN250
     FM230300 30009KT P6SM SCT150 BKN250

CARSON CITY TAF FORECAST:
KCXP 221120Z 2212/2312 VRB03KT P6SM SCT250
     FM222000 24013G23KT P6SM SCT150 BKN250
     FM230200 29007KT P6SM SCT150 BKN250

OUTLOOK FOR THE RENO-CARSON CITY-MINDEN AREA:
.SUNDAY...PARTLY CLOUDY IN THE MORNING THEN CLEARING. HIGHS 66 TO
71. WEST WINDS 10 TO 15 MPH. GUSTS UP TO 30 MPH IN THE AFTERNOON.

SUNRISE AND SUNSET
APRIL 22 2017.........SUNRISE   611 AM PDT   SUNSET   744 PM PDT
APRIL 23 2017.........SUNRISE   610 AM PDT   SUNSET   745 PM PDT



USA.gov is the U.S. government's official web portal to all federal, state and local government web resources and services.